createdAt,value
2023-03-28T00:01:17.277Z,2.37
2023-03-28T00:06:19.091Z,1.57
2023-03-28T00:11:22.043Z,1.80
2023-03-28T00:16:25.637Z,1.27
2023-03-28T00:21:32.451Z,3.63
2023-03-28T00:26:35.673Z,2.87
2023-03-28T00:31:38.945Z,3.00
2023-03-28T00:36:41.606Z,2.00
2023-03-28T00:41:44.406Z,2.23
2023-03-28T00:46:46.399Z,2.47
2023-03-28T00:51:57.229Z,2.73
2023-03-28T00:57:01.314Z,3.97
2023-03-28T01:02:03.369Z,1.80
2023-03-28T01:07:06.053Z,4.53
2023-03-28T01:12:11.116Z,3.90
2023-03-28T01:17:12.875Z,3.50
2023-03-28T01:22:56.502Z,5.20
2023-03-28T01:28:34.083Z,3.83
2023-03-28T01:33:52.090Z,3.63
2023-03-28T01:39:04.981Z,2.67
2023-03-28T01:44:14.924Z,3.13
2023-03-28T01:49:26.641Z,5.03
2023-03-28T01:54:37.383Z,5.43
2023-03-28T01:59:43.428Z,2.93
2023-03-28T02:05:02.868Z,4.47
2023-03-28T02:10:06.818Z,4.00
2023-03-28T02:15:23.723Z,4.55
2023-03-28T02:20:44.913Z,4.80
2023-03-28T02:26:09.622Z,2.30
2023-03-28T02:31:29.846Z,5.95
2023-03-28T02:37:05.541Z,7.07
2023-03-28T02:42:23.609Z,4.47
2023-03-28T02:47:35.449Z,5.87
2023-03-28T02:52:37.001Z,4.20
2023-03-28T02:57:43.335Z,4.27
2023-03-28T03:02:49.313Z,3.13
2023-03-28T03:07:52.120Z,4.28
2023-03-28T03:12:54.089Z,7.07
2023-03-28T03:17:56.213Z,6.77
2023-03-28T03:23:01.274Z,4.83
2023-03-28T03:28:03.272Z,5.30
2023-03-28T03:33:05.870Z,4.97
2023-03-28T03:38:08.400Z,5.43
2023-03-28T03:43:10.045Z,1.67
2023-03-28T03:48:13.967Z,1.30
2023-03-28T03:53:16.513Z,1.77
2023-03-28T03:58:24.986Z,3.83
2023-03-28T04:03:26.998Z,2.03
2023-03-28T04:08:29.343Z,3.00
2023-03-28T04:13:30.983Z,2.43
2023-03-28T04:18:36.349Z,3.70
2023-03-28T04:23:43.752Z,1.20
2023-03-28T04:29:05.905Z,5.97
2023-03-28T04:34:10.946Z,2.10
2023-03-28T04:39:22.903Z,3.03
2023-03-28T04:44:43.072Z,1.27
2023-03-28T04:49:48.714Z,2.43
2023-03-28T04:54:51.459Z,4.00
2023-03-28T04:59:56.575Z,3.57
2023-03-28T05:05:18.495Z,3.00
2023-03-28T05:10:20.308Z,1.73
2023-03-28T05:15:23.376Z,3.50
2023-03-28T05:20:55.137Z,2.07
2023-03-28T05:25:58.893Z,3.37
2023-03-28T05:31:03.953Z,2.30
2023-03-28T05:36:06.295Z,3.43
2023-03-28T05:41:08.629Z,4.33
2023-03-28T05:46:10.853Z,3.73
2023-03-28T05:51:17.048Z,4.07
2023-03-28T05:56:18.669Z,2.20
2023-03-28T06:01:23.254Z,5.13
2023-03-28T06:06:28.884Z,2.90
2023-03-28T06:11:30.717Z,1.83
2023-03-28T06:16:43.668Z,3.30
2023-03-28T06:21:45.778Z,3.20
2023-03-28T06:26:47.475Z,3.30
2023-03-28T06:31:52.837Z,2.97
2023-03-28T06:36:54.590Z,4.00
2023-03-28T06:42:02.399Z,4.00
2023-03-28T06:47:12.309Z,3.53
2023-03-28T06:52:15.742Z,3.30
2023-03-28T06:57:19.436Z,2.67
2023-03-28T07:02:23.747Z,2.90
2023-03-28T07:07:29.714Z,2.83
2023-03-28T07:12:31.432Z,2.60
2023-03-28T07:17:33.163Z,2.27
2023-03-28T07:22:35.370Z,1.60
2023-03-28T07:27:36.931Z,3.43
2023-03-28T07:32:48.053Z,3.17
2023-03-28T07:37:55.786Z,1.87
2023-03-28T07:43:20.116Z,2.83
2023-03-28T07:48:22.491Z,2.00
2023-03-28T07:53:24.065Z,2.33
2023-03-28T07:58:26.098Z,3.27
2023-03-28T08:03:30.878Z,2.07
2023-03-28T08:08:33.050Z,3.33
2023-03-28T08:13:53.664Z,2.53
2023-03-28T08:19:09.986Z,1.67
2023-03-28T08:24:32.893Z,2.17
2023-03-28T08:29:40.564Z,3.63
2023-03-28T08:34:42.424Z,2.13
2023-03-28T08:39:49.862Z,1.57
2023-03-28T08:45:08.745Z,1.47
2023-03-28T08:50:16.757Z,2.67
2023-03-28T08:55:41.404Z,2.83
2023-03-28T09:00:42.962Z,3.13
2023-03-28T09:06:02.224Z,2.07
2023-03-28T09:11:30.819Z,2.97
2023-03-28T09:16:51.682Z,1.30
2023-03-28T09:22:29.023Z,1.30
2023-03-28T09:27:33.672Z,1.77
2023-03-28T09:32:40.988Z,2.77
2023-03-28T09:37:44.820Z,5.27
2023-03-28T09:43:13.120Z,2.27
2023-03-28T09:48:31.133Z,1.10
2023-03-28T09:53:37.623Z,2.70
2023-03-28T09:58:52.983Z,1.40
2023-03-28T10:04:15.534Z,0.80
2023-03-28T10:09:54.571Z,2.80
2023-03-28T10:14:58.227Z,0.83
2023-03-28T10:20:24.022Z,0.97
2023-03-28T10:25:37.750Z,0.97
2023-03-28T10:30:40.617Z,2.27
2023-03-28T10:35:52.899Z,0.80
2023-03-28T10:41:09.432Z,0.77
2023-03-28T10:46:37.921Z,0.70
2023-03-28T10:52:22.818Z,0.80
2023-03-28T10:57:30.967Z,0.90
2023-03-28T11:03:15.709Z,6.70
2023-03-28T11:08:42.305Z,5.70
2023-03-28T11:14:08.642Z,1.60
2023-03-28T11:19:34.256Z,2.83
2023-03-28T11:24:40.771Z,0.93
2023-03-28T11:30:26.750Z,1.65
2023-03-28T11:35:59.500Z,0.97
2023-03-28T11:41:11.976Z,1.70
2023-03-28T11:46:51.303Z,1.17
2023-03-28T11:52:07.977Z,1.20
2023-03-28T11:57:25.306Z,1.45
2023-03-28T12:02:41.663Z,1.30
2023-03-28T12:07:50.570Z,2.23
2023-03-28T12:13:12.938Z,1.13
2023-03-28T12:18:41.525Z,2.17
2023-03-28T12:24:11.600Z,2.08
2023-03-28T12:29:51.109Z,1.30
2023-03-28T12:35:32.823Z,1.43
2023-03-28T12:40:59.466Z,1.58
2023-03-28T12:46:04.468Z,2.97
2023-03-28T12:51:18.101Z,2.42
2023-03-28T12:56:21.748Z,2.17
2023-03-28T13:01:41.203Z,2.42
2023-03-28T13:07:37.086Z,1.98
2023-03-28T13:12:53.697Z,2.23
2023-03-28T13:18:23.144Z,1.38
2023-03-28T13:23:36.610Z,1.55
2023-03-28T13:28:42.602Z,1.42
2023-03-28T13:33:47.465Z,2.23
2023-03-28T13:39:22.906Z,2.40
2023-03-28T13:44:41.467Z,2.38
2023-03-28T13:49:53.971Z,2.70
2023-03-28T13:55:16.570Z,3.85
2023-03-28T14:00:22.458Z,1.83
2023-03-28T14:05:29.425Z,3.50
2023-03-28T14:10:36.006Z,3.95
2023-03-28T14:15:39.790Z,2.58
2023-03-28T14:20:42.296Z,2.80
2023-03-28T14:25:43.876Z,3.40
2023-03-28T14:30:45.758Z,4.53
2023-03-28T14:36:18.466Z,2.17
2023-03-28T14:41:28.268Z,5.57
2023-03-28T14:46:31.553Z,3.65
2023-03-28T14:51:42.845Z,2.38
2023-03-28T14:56:45.269Z,4.22
2023-03-28T15:01:49.143Z,2.30
2023-03-28T15:06:55.487Z,3.88
2023-03-28T15:11:57.621Z,2.95
2023-03-28T15:16:59.882Z,2.33
2023-03-28T15:22:08.697Z,3.20
2023-03-28T15:27:20.377Z,3.83
2023-03-28T15:32:22.202Z,3.30
2023-03-28T15:37:26.214Z,2.15
2023-03-28T15:42:34.135Z,4.63
2023-03-28T15:47:35.835Z,1.63
2023-03-28T15:52:41.528Z,3.85
2023-03-28T15:57:45.791Z,5.72
2023-03-28T16:02:47.530Z,3.08
2023-03-28T16:07:50.697Z,4.88
2023-03-28T16:12:52.653Z,4.43
2023-03-28T16:18:12.859Z,3.90
2023-03-28T16:23:26.224Z,3.92
2023-03-28T16:28:27.944Z,3.65
2023-03-28T16:33:29.628Z,4.68
2023-03-28T16:38:31.203Z,4.20
2023-03-28T16:43:32.810Z,3.38
2023-03-28T16:48:35.006Z,6.70
2023-03-28T16:53:40.297Z,4.15
2023-03-28T16:58:42.676Z,3.50
2023-03-28T17:03:47.431Z,5.45
2023-03-28T17:08:49.440Z,4.68
2023-03-28T17:13:52.568Z,2.97
2023-03-28T17:18:54.892Z,4.77
2023-03-28T17:23:56.700Z,5.43
2023-03-28T17:28:58.415Z,4.80
2023-03-28T17:34:00.264Z,3.33
2023-03-28T17:39:03.042Z,2.78
2023-03-28T17:44:09.223Z,2.88
2023-03-28T17:49:10.897Z,5.13
2023-03-28T17:54:12.567Z,4.28
2023-03-28T17:59:14.198Z,3.92
2023-03-28T18:04:17.507Z,5.78
2023-03-28T18:09:39.832Z,6.75
2023-03-28T18:14:41.607Z,3.90
2023-03-28T18:19:43.230Z,5.00
2023-03-28T18:24:44.792Z,4.15
2023-03-28T18:29:47.556Z,7.05
2023-03-28T18:34:49.267Z,7.28
2023-03-28T18:39:50.814Z,4.57
2023-03-28T18:44:52.700Z,3.50
2023-03-28T18:49:54.390Z,3.30
2023-03-28T18:54:55.985Z,4.70
2023-03-28T18:59:57.552Z,5.78
2023-03-28T19:04:59.111Z,5.90
2023-03-28T19:10:00.987Z,5.07
2023-03-28T19:15:06.258Z,5.60
2023-03-28T19:20:12.581Z,4.53
2023-03-28T19:25:14.375Z,5.53
2023-03-28T19:30:16.134Z,5.43
2023-03-28T19:35:17.698Z,9.20
2023-03-28T19:40:19.271Z,5.93
2023-03-28T19:45:20.947Z,5.05
2023-03-28T19:50:23.191Z,5.57
2023-03-28T19:55:25.010Z,7.05
2023-03-28T20:00:26.701Z,3.88
2023-03-28T20:05:28.317Z,6.15
2023-03-28T20:10:29.889Z,7.85
2023-03-28T20:15:32.150Z,5.07
2023-03-28T20:20:33.774Z,5.40
2023-03-28T20:25:36.790Z,4.53
2023-03-28T20:30:38.760Z,7.50
2023-03-28T20:35:43.499Z,7.57
2023-03-28T20:40:45.175Z,6.35
2023-03-28T20:45:54.294Z,5.07
2023-03-28T20:50:56.074Z,6.70
2023-03-28T20:56:03.379Z,11.30
2023-03-28T21:01:06.582Z,11.30
2023-03-28T21:06:08.443Z,6.72
2023-03-28T21:11:10.191Z,8.65
2023-03-28T21:16:14.130Z,11.87
2023-03-28T21:21:17.854Z,9.30
2023-03-28T21:26:21.501Z,6.30
2023-03-28T21:31:25.998Z,6.93
2023-03-28T21:36:28.624Z,6.07
2023-03-28T21:41:30.243Z,7.43
2023-03-28T21:46:31.846Z,7.57
2023-03-28T21:51:33.782Z,7.43
2023-03-28T21:56:35.574Z,6.57
2023-03-28T22:01:37.469Z,6.50
2023-03-28T22:06:39.108Z,7.40
2023-03-28T22:11:42.094Z,7.20
2023-03-28T22:16:43.752Z,7.53
2023-03-28T22:21:45.382Z,6.47
2023-03-28T22:26:47.993Z,6.37
2023-03-28T22:31:49.790Z,8.23
2023-03-28T22:36:51.847Z,5.80
2023-03-28T22:41:54.118Z,8.37
2023-03-28T22:47:02.041Z,5.87
2023-03-28T22:52:04.805Z,4.70
2023-03-28T22:57:06.977Z,6.53
2023-03-28T23:02:08.768Z,8.30
2023-03-28T23:07:12.392Z,7.18
2023-03-28T23:12:14.100Z,5.97
2023-03-28T23:17:15.676Z,7.47
2023-03-28T23:22:17.390Z,8.80
2023-03-28T23:27:19.655Z,6.63
2023-03-28T23:32:21.236Z,6.03
2023-03-28T23:37:26.033Z,5.38
2023-03-28T23:42:27.576Z,4.20
2023-03-28T23:47:29.240Z,5.43
2023-03-28T23:52:31.255Z,4.70
2023-03-28T23:57:32.998Z,4.97
